createdAt,value
2023-12-26T00:00:47.715Z,85.16
2023-12-26T00:05:53.611Z,85.10
2023-12-26T00:10:59.358Z,85.05
2023-12-26T00:16:05.126Z,85.01
2023-12-26T00:21:10.755Z,84.94
2023-12-26T00:26:16.471Z,84.85
2023-12-26T00:31:22.079Z,84.71
2023-12-26T00:36:27.703Z,84.64
2023-12-26T00:41:33.442Z,84.78
2023-12-26T00:46:39.175Z,84.83
2023-12-26T00:51:44.878Z,84.71
2023-12-26T00:56:50.709Z,84.66
2023-12-26T01:01:58.647Z,84.75
2023-12-26T01:07:04.337Z,84.55
2023-12-26T01:12:10.625Z,84.55
2023-12-26T01:17:16.319Z,84.36
2023-12-26T01:22:21.970Z,84.10
2023-12-26T01:27:27.734Z,83.98
2023-12-26T01:32:34.127Z,83.85
2023-12-26T01:37:39.853Z,83.86
2023-12-26T01:42:47.725Z,83.86
2023-12-26T01:47:58.061Z,83.77
2023-12-26T01:53:04.869Z,83.57
2023-12-26T01:58:10.800Z,83.43
2023-12-26T02:03:16.766Z,83.45
2023-12-26T02:08:23.905Z,83.40
2023-12-26T02:13:29.632Z,83.36
2023-12-26T02:18:36.307Z,83.26
2023-12-26T02:23:43.187Z,83.09
2023-12-26T02:28:49.819Z,82.89
2023-12-26T02:33:56.372Z,82.57
2023-12-26T02:39:03.929Z,82.67
2023-12-26T02:44:10.033Z,82.50
2023-12-26T02:49:15.810Z,82.47
2023-12-26T02:54:21.553Z,82.35
2023-12-26T02:59:27.225Z,82.35
2023-12-26T03:04:32.891Z,82.28
2023-12-26T03:09:38.680Z,82.25
2023-12-26T03:14:44.487Z,82.27
2023-12-26T03:19:50.358Z,82.09
2023-12-26T03:24:55.996Z,81.96
2023-12-26T03:30:01.890Z,81.90
2023-12-26T03:35:08.865Z,81.79
2023-12-26T03:40:15.550Z,81.61
2023-12-26T03:45:21.349Z,81.49
2023-12-26T03:50:28.013Z,81.47
2023-12-26T03:55:34.403Z,81.13
2023-12-26T04:00:49.290Z,81.09
2023-12-26T04:05:55.181Z,80.92
2023-12-26T04:11:00.883Z,80.80
2023-12-26T04:16:07.812Z,80.76
2023-12-26T04:21:13.661Z,80.49
2023-12-26T04:26:19.364Z,80.32
2023-12-26T04:31:27.203Z,80.17
2023-12-26T04:36:37.471Z,80.13
2023-12-26T04:41:43.267Z,80.05
2023-12-26T04:46:49.195Z,80.06
2023-12-26T04:51:54.816Z,80.00
2023-12-26T04:57:01.157Z,79.98
2023-12-26T05:02:07.461Z,79.92
2023-12-26T05:07:13.190Z,79.69
2023-12-26T05:12:18.979Z,79.57
2023-12-26T05:17:24.613Z,79.61
2023-12-26T05:22:30.249Z,79.51
2023-12-26T05:27:35.845Z,79.44
2023-12-26T05:32:41.892Z,79.48
2023-12-26T05:37:47.807Z,79.47
2023-12-26T05:42:55.486Z,79.34
2023-12-26T05:48:02.628Z,79.20
2023-12-26T05:53:08.692Z,79.17
2023-12-26T05:58:14.348Z,79.11
2023-12-26T06:03:20.091Z,79.01
2023-12-26T06:08:26.396Z,78.99
2023-12-26T06:13:32.200Z,78.92
2023-12-26T06:18:38.155Z,78.88
2023-12-26T06:23:44.763Z,78.82
2023-12-26T06:28:50.415Z,78.75
2023-12-26T06:33:56.199Z,78.63
2023-12-26T06:39:02.587Z,78.69
2023-12-26T06:44:08.513Z,78.64
2023-12-26T06:49:18.261Z,78.61
2023-12-26T06:54:24.333Z,78.61
2023-12-26T06:59:29.900Z,78.69
2023-12-26T07:04:35.787Z,78.46
2023-12-26T07:09:41.668Z,78.48
2023-12-26T07:14:47.614Z,78.43
2023-12-26T07:19:53.323Z,78.26
2023-12-26T07:24:59.025Z,78.55
2023-12-26T07:30:05.313Z,78.33
2023-12-26T07:35:12.211Z,78.25
2023-12-26T07:40:18.713Z,78.17
2023-12-26T07:45:26.320Z,78.05
2023-12-26T07:50:32.091Z,78.01
2023-12-26T07:55:38.005Z,78.00
2023-12-26T08:00:45.118Z,78.06
2023-12-26T08:05:51.057Z,77.83
2023-12-26T08:10:57.054Z,77.74
2023-12-26T08:16:04.271Z,77.71
2023-12-26T08:21:10.001Z,77.49
2023-12-26T08:26:15.762Z,77.41
2023-12-26T08:31:21.935Z,77.09
2023-12-26T08:36:27.045Z,77.05
2023-12-26T08:41:32.874Z,76.84
2023-12-26T08:46:40.421Z,76.65
2023-12-26T08:51:46.076Z,76.54
2023-12-26T08:56:52.222Z,76.21
2023-12-26T09:01:57.980Z,76.29
2023-12-26T09:07:05.202Z,76.13
2023-12-26T09:12:11.204Z,75.90
2023-12-26T09:17:15.391Z,75.66
2023-12-26T09:22:21.116Z,75.66
2023-12-26T09:27:26.887Z,75.42
2023-12-26T09:32:32.676Z,75.54
2023-12-26T09:37:40.469Z,75.53
2023-12-26T09:42:46.516Z,75.39
2023-12-26T09:47:53.317Z,75.44
2023-12-26T09:53:06.289Z,75.27
2023-12-26T09:58:12.765Z,74.96
2023-12-26T10:03:19.565Z,75.02
2023-12-26T10:08:25.282Z,74.69
2023-12-26T10:13:44.287Z,74.48
2023-12-26T10:18:51.935Z,74.39
2023-12-26T10:23:59.890Z,74.07
2023-12-26T10:29:06.229Z,73.68
2023-12-26T10:34:21.895Z,73.75
2023-12-26T10:39:28.473Z,73.89
2023-12-26T10:44:52.875Z,73.78
2023-12-26T10:50:00.894Z,73.41
2023-12-26T10:55:10.227Z,73.22
2023-12-26T11:00:53.284Z,73.17
2023-12-26T11:06:58.290Z,73.06
2023-12-26T11:13:03.605Z,72.92
2023-12-26T11:19:09.352Z,72.67
2023-12-26T11:25:14.542Z,72.82
2023-12-26T11:31:19.615Z,72.61
2023-12-26T11:37:24.249Z,72.61
2023-12-26T11:43:29.769Z,72.93
2023-12-26T11:49:34.483Z,72.89
2023-12-26T11:55:39.393Z,72.65
2023-12-26T12:01:44.456Z,72.72
2023-12-26T12:07:49.645Z,72.40
2023-12-26T12:13:54.524Z,72.64
2023-12-26T12:19:59.717Z,72.48
2023-12-26T12:26:04.473Z,72.34
2023-12-26T12:32:09.424Z,72.29
2023-12-26T12:38:14.554Z,72.49
2023-12-26T12:44:19.544Z,72.29
2023-12-26T12:50:24.435Z,72.21
2023-12-26T12:56:29.636Z,71.90
2023-12-26T13:02:34.427Z,71.82
2023-12-26T13:08:41.047Z,71.55
2023-12-26T13:14:46.589Z,71.67
2023-12-26T13:20:51.555Z,71.41
2023-12-26T13:26:57.519Z,71.56
2023-12-26T13:33:02.892Z,71.39
2023-12-26T13:39:07.700Z,71.31
2023-12-26T13:45:12.523Z,71.06
2023-12-26T13:51:17.795Z,71.01
2023-12-26T13:56:23.416Z,70.94
2023-12-26T14:02:04.344Z,70.97
2023-12-26T14:07:46.297Z,70.90
2023-12-26T14:13:26.897Z,70.98
2023-12-26T14:19:07.404Z,70.99
2023-12-26T14:24:48.049Z,71.00
2023-12-26T14:30:28.429Z,71.07
2023-12-26T14:36:08.777Z,71.17
2023-12-26T14:41:49.241Z,71.18
2023-12-26T14:47:29.459Z,71.16
2023-12-26T14:53:09.752Z,71.18
2023-12-26T14:58:51.580Z,71.07
2023-12-26T15:03:58.342Z,71.01
2023-12-26T15:09:05.207Z,71.22
2023-12-26T15:14:31.161Z,71.03
2023-12-26T15:19:40.505Z,71.09
2023-12-26T15:24:46.443Z,70.97
2023-12-26T15:29:52.201Z,71.25
2023-12-26T15:34:57.902Z,71.26
2023-12-26T15:40:04.215Z,71.24
2023-12-26T15:45:11.776Z,71.08
2023-12-26T15:50:17.934Z,71.56
2023-12-26T15:55:23.672Z,71.81
2023-12-26T16:00:29.670Z,71.71
2023-12-26T16:05:36.587Z,71.71
2023-12-26T16:10:43.963Z,71.41
2023-12-26T16:15:50.418Z,71.66
2023-12-26T16:20:56.745Z,72.84
2023-12-26T16:26:04.488Z,74.29
2023-12-26T16:31:10.305Z,75.09
2023-12-26T16:36:14.834Z,75.72
2023-12-26T16:41:20.572Z,75.90
2023-12-26T16:46:26.446Z,76.46
2023-12-26T16:51:32.233Z,76.82
2023-12-26T16:56:38.071Z,77.21
2023-12-26T17:01:46.457Z,77.79
2023-12-26T17:06:52.308Z,78.09
2023-12-26T17:11:58.053Z,78.28
2023-12-26T17:17:03.872Z,78.35
2023-12-26T17:22:12.366Z,78.29
2023-12-26T17:27:18.457Z,78.39
2023-12-26T17:32:25.756Z,78.11
2023-12-26T17:37:31.638Z,77.88
2023-12-26T17:42:37.318Z,77.71
2023-12-26T17:47:44.146Z,77.76
2023-12-26T17:52:52.057Z,77.72
2023-12-26T17:57:58.761Z,77.55
2023-12-26T18:03:04.772Z,77.44
2023-12-26T18:08:10.613Z,77.25
2023-12-26T18:13:16.311Z,77.39
2023-12-26T18:18:22.356Z,77.52
2023-12-26T18:23:29.085Z,77.51
2023-12-26T18:28:34.826Z,77.41
2023-12-26T18:33:40.749Z,77.29
2023-12-26T18:38:45.177Z,77.10
2023-12-26T18:43:50.860Z,77.20
2023-12-26T18:48:56.823Z,77.23
2023-12-26T18:54:02.877Z,77.32
2023-12-26T18:59:09.014Z,77.30
2023-12-26T19:04:15.016Z,77.30
2023-12-26T19:09:21.048Z,77.68
2023-12-26T19:14:26.760Z,77.82
2023-12-26T19:19:33.019Z,78.13
2023-12-26T19:24:38.794Z,78.20
2023-12-26T19:29:44.625Z,78.20
2023-12-26T19:34:50.642Z,78.38
2023-12-26T19:39:56.751Z,78.64
2023-12-26T19:45:02.480Z,78.86
2023-12-26T19:50:09.292Z,79.16
2023-12-26T19:55:15.040Z,79.36
2023-12-26T20:00:21.143Z,79.31
2023-12-26T20:05:26.878Z,79.16
2023-12-26T20:10:32.644Z,79.09
2023-12-26T20:15:38.574Z,78.55
2023-12-26T20:20:44.755Z,77.77
2023-12-26T20:25:48.947Z,77.23
2023-12-26T20:30:54.654Z,77.63
2023-12-26T20:36:00.362Z,77.71
2023-12-26T20:41:06.935Z,78.10
2023-12-26T20:46:15.547Z,78.05
2023-12-26T20:51:22.936Z,78.00
2023-12-26T20:56:28.948Z,78.21
2023-12-26T21:01:34.905Z,77.77
2023-12-26T21:06:42.363Z,77.73
2023-12-26T21:11:47.971Z,77.61
2023-12-26T21:16:53.570Z,77.56
2023-12-26T21:21:59.246Z,77.45
2023-12-26T21:27:05.132Z,77.48
2023-12-26T21:32:10.801Z,77.43
2023-12-26T21:37:16.669Z,77.21
2023-12-26T21:42:22.354Z,76.92
2023-12-26T21:47:29.745Z,76.66
2023-12-26T21:52:35.367Z,76.48
2023-12-26T21:57:41.481Z,76.42
2023-12-26T22:02:47.199Z,76.23
2023-12-26T22:07:53.166Z,76.69
2023-12-26T22:12:58.905Z,76.96
2023-12-26T22:18:05.478Z,77.43
2023-12-26T22:23:11.593Z,77.54
2023-12-26T22:28:17.800Z,77.68
2023-12-26T22:33:23.680Z,77.83
2023-12-26T22:38:29.395Z,77.50
2023-12-26T22:43:37.029Z,77.41
2023-12-26T22:48:43.164Z,77.38
2023-12-26T22:53:47.895Z,76.70
2023-12-26T22:58:53.498Z,76.69
2023-12-26T23:03:59.273Z,76.46
2023-12-26T23:09:05.557Z,76.58
2023-12-26T23:14:10.918Z,76.32
2023-12-26T23:19:17.114Z,76.23
2023-12-26T23:24:21.263Z,75.96
2023-12-26T23:29:27.587Z,75.67
2023-12-26T23:34:43.499Z,75.77
2023-12-26T23:39:53.818Z,75.67
2023-12-26T23:44:59.502Z,75.49
2023-12-26T23:50:05.447Z,75.26
2023-12-26T23:55:11.975Z,74.93
